Time;durP1;ratioP1;P1;durP2;ratioP2;P2;SDS_P1;SDS_P2;PMS_P1;PMS_P2;Temp;Humidity;BMP_temperature;BMP_pressure;BME280_temperature;BME280_humidity;BME280_pressure;Samples;Min_cycle;Max_cycle;Signal;HPM_P1;HPM_P2
2023/11/06 00:02:08;;;;;;;5.10;2.75;;;;;;;11.19;100.00;98416.81;6193351;28;20152;-77
2023/11/06 00:05:11;;;;;;;6.32;2.72;;;;;;;11.12;100.00;98427.00;6191845;28;20065;-77
2023/11/06 00:08:12;;;;;;;4.32;2.60;;;;;;;11.08;100.00;98431.66;6192723;28;20058;-73
2023/11/06 00:11:15;;;;;;;7.30;2.92;;;;;;;11.12;100.00;98445.25;6184255;28;20038;-78
2023/11/06 00:14:16;;;;;;;7.82;2.88;;;;;;;11.03;100.00;98441.66;6189624;28;20089;-77
2023/11/06 00:17:17;;;;;;;4.13;2.60;;;;;;;11.04;100.00;98445.94;6189821;28;20054;-74
2023/11/06 00:20:18;;;;;;;4.18;2.47;;;;;;;11.04;100.00;98458.97;6191376;28;20485;-78
2023/11/06 00:23:19;;;;;;;7.32;2.67;;;;;;;10.93;100.00;98455.66;6195648;28;20109;-73
2023/11/06 00:26:20;;;;;;;8.25;2.95;;;;;;;10.97;100.00;98451.81;6190889;28;20050;-74
2023/11/06 00:29:21;;;;;;;6.57;2.60;;;;;;;11.09;100.00;98474.22;6197698;28;20069;-74
2023/11/06 00:32:25;;;;;;;7.33;2.60;;;;;;;11.00;100.00;98470.66;6200272;28;20449;-74
2023/11/06 00:35:26;;;;;;;4.32;2.33;;;;;;;10.94;100.00;98484.22;6199362;28;20280;-77
2023/11/06 00:38:29;;;;;;;5.50;2.63;;;;;;;10.79;100.00;98485.56;6199241;28;20080;-74
2023/11/06 00:41:32;;;;;;;3.80;2.85;;;;;;;10.86;100.00;98504.94;6199065;28;20105;-74
2023/11/06 00:44:35;;;;;;;6.53;2.70;;;;;;;10.88;100.00;98511.69;6200510;28;20065;-74
2023/11/06 00:47:36;;;;;;;4.50;2.53;;;;;;;10.79;100.00;98511.66;6200060;28;20149;-77
2023/11/06 00:50:37;;;;;;;6.85;2.67;;;;;;;10.80;100.00;98524.56;6198307;28;20042;-75
2023/11/06 00:53:39;;;;;;;6.78;2.97;;;;;;;10.77;100.00;98527.44;6200128;28;20104;-77
2023/11/06 00:56:40;;;;;;;5.80;2.67;;;;;;;10.80;100.00;98536.78;6200140;28;20046;-74
2023/11/06 00:59:42;;;;;;;5.38;2.30;;;;;;;10.81;100.00;98536.66;6198600;28;20058;-74
2023/11/06 01:02:43;;;;;;;4.05;2.10;;;;;;;10.82;100.00;98534.88;6198930;28;20054;-74
2023/11/06 01:05:44;;;;;;;5.00;2.30;;;;;;;10.79;100.00;98553.38;6192502;28;20197;-75
2023/11/06 01:08:45;;;;;;;6.25;2.83;;;;;;;10.68;100.00;98557.75;6198372;28;20501;-74
2023/11/06 01:11:49;;;;;;;9.95;3.15;;;;;;;10.69;100.00;98563.81;6199691;28;20050;-73
2023/11/06 01:14:49;;;;;;;4.53;2.28;;;;;;;10.64;100.00;98560.75;6198321;28;20082;-77
2023/11/06 01:17:50;;;;;;;7.68;2.47;;;;;;;10.65;100.00;98567.63;6196403;28;20488;-77
2023/11/06 01:20:51;;;;;;;4.93;2.30;;;;;;;10.58;100.00;98566.47;6188404;28;20044;-74
2023/11/06 01:23:52;;;;;;;4.25;2.35;;;;;;;10.47;100.00;98564.78;6168995;28;20061;-74
2023/11/06 01:26:53;;;;;;;3.10;2.17;;;;;;;10.47;100.00;98568.22;6196180;28;20061;-74
2023/11/06 01:29:53;;;;;;;3.72;2.28;;;;;;;10.45;100.00;98570.13;6197957;28;20046;-74
2023/11/06 01:32:54;;;;;;;3.92;2.40;;;;;;;10.60;100.00;98582.81;6191432;28;20453;-74
2023/11/06 01:35:56;;;;;;;5.25;2.20;;;;;;;10.66;100.00;98593.56;6215478;28;20058;-77
2023/11/06 01:38:56;;;;;;;9.55;2.70;;;;;;;10.61;100.00;98610.56;6197263;28;20082;-74
2023/11/06 01:41:57;;;;;;;4.10;2.13;;;;;;;10.72;100.00;98612.28;6199000;28;20471;-77
2023/11/06 01:44:58;;;;;;;4.03;1.98;;;;;;;10.75;100.00;98625.91;6198096;28;20050;-78
2023/11/06 01:48:00;;;;;;;3.42;1.90;;;;;;;10.77;100.00;98628.34;6197343;28;20104;-78
2023/11/06 01:51:01;;;;;;;2.35;2.03;;;;;;;10.73;100.00;98626.97;6198848;28;20132;-78
2023/11/06 01:54:03;;;;;;;3.28;1.77;;;;;;;10.72;100.00;98647.00;6197491;28;20050;-78
2023/11/06 01:57:05;;;;;;;5.70;2.40;;;;;;;10.69;100.00;98653.31;6198780;28;20513;-75
2023/11/06 02:00:15;;;;;;;3.25;1.75;;;;;;;10.57;100.00;98653.53;6197307;28;20085;-77
2023/11/06 02:03:19;;;;;;;3.25;2.00;;;;;;;10.56;100.00;98654.47;6198644;28;20050;-74
2023/11/06 02:06:21;;;;;;;3.33;1.92;;;;;;;10.44;100.00;98662.34;6196527;28;20061;-78
2023/11/06 02:09:22;;;;;;;2.92;1.85;;;;;;;10.52;100.00;98663.50;6184181;28;21409;-74
2023/11/06 02:12:22;;;;;;;3.72;1.98;;;;;;;10.46;100.00;98660.44;6192674;28;20421;-74
2023/11/06 02:15:26;;;;;;;5.85;2.28;;;;;;;10.43;100.00;98672.91;6184163;28;20046;-78
2023/11/06 02:18:27;;;;;;;3.05;1.67;;;;;;;10.34;100.00;98674.50;6183356;28;20413;-78
2023/11/06 02:21:30;;;;;;;7.45;1.77;;;;;;;10.26;100.00;98682.09;6195044;28;20050;-77
2023/11/06 02:24:31;;;;;;;3.00;1.83;;;;;;;10.19;100.00;98683.53;6198087;28;20125;-78
2023/11/06 02:27:32;;;;;;;3.10;1.98;;;;;;;10.20;100.00;98688.63;6173718;28;20070;-78
2023/11/06 02:30:38;;;;;;;4.70;1.67;;;;;;;10.16;100.00;98700.25;6180524;28;20046;-74
2023/11/06 02:33:39;;;;;;;5.63;1.90;;;;;;;10.18;100.00;98687.91;6197881;28;20081;-78
2023/11/06 02:36:42;;;;;;;4.53;1.50;;;;;;;10.18;100.00;98705.34;6197945;28;20599;-74
2023/11/06 02:39:43;;;;;;;4.47;1.60;;;;;;;10.15;100.00;98721.22;6193524;28;20050;-74
2023/11/06 02:42:48;;;;;;;2.25;1.40;;;;;;;10.00;100.00;98731.91;6190524;28;20054;-77
2023/11/06 02:45:49;;;;;;;1.55;1.10;;;;;;;10.02;100.00;98740.44;6184013;28;20149;-77
2023/11/06 02:48:50;;;;;;;1.83;1.30;;;;;;;10.07;100.00;98755.72;6196967;28;20059;-77
2023/11/06 02:51:54;;;;;;;1.38;1.00;;;;;;;10.15;100.00;98762.91;6195238;28;20058;-74
2023/11/06 02:54:55;;;;;;;1.42;1.08;;;;;;;10.15;100.00;98762.91;6195800;28;20054;-77
2023/11/06 02:57:58;;;;;;;8.02;1.30;;;;;;;10.10;100.00;98776.31;6197399;28;20073;-77
2023/11/06 03:00:59;;;;;;;2.42;1.52;;;;;;;10.06;100.00;98770.50;6195457;28;20082;-77
2023/11/06 03:04:05;;;;;;;1.92;1.15;;;;;;;10.12;100.00;98774.41;6196022;28;20046;-77
2023/11/06 03:07:08;;;;;;;2.72;1.38;;;;;;;9.96;100.00;98781.78;6172871;28;20055;-78
2023/11/06 03:10:10;;;;;;;2.13;1.55;;;;;;;10.11;100.00;98806.66;6195628;28;20444;-74
2023/11/06 03:13:15;;;;;;;2.50;1.17;;;;;;;10.08;100.00;98812.09;6195635;28;20509;-74
2023/11/06 03:16:17;;;;;;;2.13;1.20;;;;;;;10.15;100.00;98821.13;6195679;28;20492;-78
2023/11/06 03:19:18;;;;;;;1.63;0.88;;;;;;;10.07;100.00;98829.53;6195719;28;20054;-78
2023/11/06 03:22:18;;;;;;;1.45;0.95;;;;;;;10.11;100.00;98827.50;6195335;28;20093;-78
2023/11/06 03:25:19;;;;;;;4.22;0.95;;;;;;;10.20;100.00;98837.19;6195423;28;20513;-77
2023/11/06 03:28:20;;;;;;;1.00;0.82;;;;;;;10.21;100.00;98849.31;6195257;28;20046;-78
2023/11/06 03:31:21;;;;;;;0.85;0.82;;;;;;;10.02;100.00;98870.72;6195206;28;20042;-78
2023/11/06 03:34:23;;;;;;;1.13;0.90;;;;;;;9.98;100.00;98845.03;6196463;28;20065;-77
2023/11/06 03:37:24;;;;;;;;;;;;;;;10.04;100.00;98849.78;6196953;28;20334;-77
2023/11/06 03:40:25;;;;;;;2.10;0.98;;;;;;;9.95;100.00;98848.72;6194985;28;20575;-74
2023/11/06 03:43:27;;;;;;;0.82;0.63;;;;;;;10.06;100.00;98861.72;6196387;28;20057;-74
2023/11/06 03:46:28;;;;;;;1.27;1.05;;;;;;;9.94;100.00;98872.28;6194721;28;20054;-74
2023/11/06 03:49:29;;;;;;;1.25;1.00;;;;;;;9.92;100.00;98879.38;6194991;28;20141;-74
2023/11/06 03:52:30;;;;;;;1.52;0.93;;;;;;;9.95;100.00;98866.97;6194675;28;20452;-73
2023/11/06 03:55:31;;;;;;;0.82;0.73;;;;;;;9.96;100.00;98865.19;6195894;28;20053;-73
2023/11/06 03:58:32;;;;;;;2.28;1.10;;;;;;;10.01;100.00;98873.47;6194852;28;20060;-73
2023/11/06 04:01:36;;;;;;;3.07;1.03;;;;;;;9.96;100.00;98884.25;6194426;28;20056;-73
2023/11/06 04:04:37;;;;;;;6.70;1.30;;;;;;;9.90;99.87;98874.28;6193928;28;20519;-78
2023/11/06 04:07:38;;;;;;;0.77;0.63;;;;;;;9.94;100.00;98885.31;6194521;28;20050;-73
2023/11/06 04:10:39;;;;;;;1.23;1.00;;;;;;;10.02;99.53;98885.56;6193359;28;20052;-77
2023/11/06 04:13:42;;;;;;;1.35;0.95;;;;;;;10.00;99.67;98879.63;6194375;28;20464;-77
2023/11/06 04:16:46;;;;;;;1.35;1.02;;;;;;;9.91;99.94;98888.16;6195226;28;20057;-78
2023/11/06 04:19:47;;;;;;;0.98;0.68;;;;;;;9.75;99.92;98891.94;6176774;28;20047;-78
2023/11/06 04:22:48;;;;;;;1.20;1.00;;;;;;;9.81;100.00;98891.47;6187715;28;20054;-78
2023/11/06 04:25:51;;;;;;;1.40;0.90;;;;;;;9.74;99.87;98895.50;6193415;28;20419;-77
2023/11/06 04:28:53;;;;;;;2.55;1.27;;;;;;;9.68;100.00;98893.34;6192846;28;20065;-77
2023/11/06 04:31:54;;;;;;;3.05;1.33;;;;;;;9.66;99.66;98897.84;6185783;28;20385;-78
2023/11/06 04:34:57;;;;;;;4.13;1.20;;;;;;;9.55;99.96;98897.81;6192867;28;20060;-77
2023/11/06 04:38:00;;;;;;;3.33;1.20;;;;;;;9.47;100.00;98909.66;6194342;28;20521;-77
2023/11/06 04:41:08;;;;;;;1.88;1.33;;;;;;;9.41;100.00;98928.31;6183674;28;20055;-77
2023/11/06 04:44:08;;;;;;;1.30;1.00;;;;;;;9.39;100.00;98919.81;6190944;28;20089;-77
2023/11/06 04:47:09;;;;;;;5.10;1.80;;;;;;;9.33;100.00;98938.47;6193725;28;20112;-78
2023/11/06 04:50:10;;;;;;;3.50;2.03;;;;;;;9.26;100.00;98919.84;6195514;28;20551;-78
2023/11/06 04:53:11;;;;;;;3.38;1.98;;;;;;;9.22;100.00;98921.03;6183141;28;20490;-74
2023/11/06 04:56:12;;;;;;;2.33;1.30;;;;;;;9.15;99.93;98926.81;6185703;28;20098;-74
2023/11/06 04:59:13;;;;;;;10.25;1.80;;;;;;;9.20;99.81;98930.72;6195103;28;20492;-78
2023/11/06 05:02:14;;;;;;;4.40;1.38;;;;;;;9.19;99.79;98925.63;6185271;28;20048;-74
2023/11/06 05:05:15;;;;;;;1.20;0.98;;;;;;;9.17;99.92;98932.72;6194700;28;20050;-74
2023/11/06 05:08:16;;;;;;;1.05;0.75;;;;;;;9.22;99.30;98925.41;6194409;28;20149;-74
2023/11/06 05:11:17;;;;;;;1.45;0.80;;;;;;;9.26;99.23;98935.47;6175778;28;20422;-74
2023/11/06 05:14:20;;;;;;;1.27;0.90;;;;;;;9.31;98.97;98957.72;6158357;28;20055;-73
2023/11/06 05:17:23;;;;;;;1.02;0.82;;;;;;;9.37;98.49;98970.28;6184313;28;20054;-74
2023/11/06 05:20:24;;;;;;;1.48;1.08;;;;;;;9.42;98.13;98992.47;6175124;28;20407;-73
2023/11/06 05:23:25;;;;;;;1.42;0.95;;;;;;;9.38;100.00;98995.41;6175317;28;20550;-74
2023/11/06 05:26:27;;;;;;;2.58;1.20;;;;;;;9.40;100.00;99009.13;6173382;28;20530;-73
2023/11/06 05:29:28;;;;;;;2.92;1.10;;;;;;;9.43;100.00;98999.34;6174588;28;20105;-74
2023/11/06 05:32:28;;;;;;;1.95;1.00;;;;;;;9.43;100.00;99001.94;6168833;28;20046;-74
2023/11/06 05:35:29;;;;;;;0.80;0.70;;;;;;;9.46;100.00;99006.91;6162070;28;20055;-78
2023/11/06 05:38:32;;;;;;;1.85;0.98;;;;;;;9.43;100.00;98990.69;6165960;28;20130;-77
2023/11/06 05:41:38;;;;;;;3.05;0.98;;;;;;;9.54;100.00;99015.94;6168044;28;20048;-77
2023/11/06 05:44:42;;;;;;;1.83;1.08;;;;;;;9.54;99.95;99021.97;6188802;28;20450;-76
2023/11/06 05:47:47;;;;;;;4.35;1.60;;;;;;;9.51;99.54;99037.00;6174227;28;20066;-77
2023/11/06 05:50:48;;;;;;;1.08;0.70;;;;;;;9.62;99.59;99048.31;6191884;28;20073;-77
2023/11/06 05:53:49;;;;;;;1.05;0.80;;;;;;;9.67;99.25;99054.00;6195188;28;20050;-76
2023/11/06 05:56:52;;;;;;;1.13;0.88;;;;;;;9.63;100.00;99057.75;6198261;28;20050;-77
2023/11/06 05:59:55;;;;;;;4.47;0.93;;;;;;;9.63;100.00;99076.00;6174914;28;20054;-77
2023/11/06 06:03:02;;;;;;;0.90;0.85;;;;;;;9.56;100.00;99098.22;6173353;28;20248;-77
2023/11/06 06:06:04;;;;;;;1.40;1.08;;;;;;;9.57;100.00;99105.09;6172969;28;20047;-77
2023/11/06 06:09:05;;;;;;;11.60;5.28;;;;;;;9.72;100.00;99110.13;6172900;28;20050;-76
2023/11/06 06:12:06;;;;;;;3.50;1.90;;;;;;;9.77;99.27;99108.03;6183423;28;20185;-73
2023/11/06 06:15:10;;;;;;;3.23;1.50;;;;;;;9.69;100.00;99119.81;6192854;28;20058;-73
2023/11/06 06:18:11;;;;;;;2.88;1.63;;;;;;;9.85;100.00;99127.38;6182202;28;20086;-76
2023/11/06 06:21:14;;;;;;;1.30;1.13;;;;;;;9.72;100.00;99131.81;6183011;28;20049;-76
2023/11/06 06:24:16;;;;;;;1.27;1.02;;;;;;;9.67;100.00;99136.53;6173802;28;20062;-76
2023/11/06 06:27:17;;;;;;;1.98;1.20;;;;;;;9.86;100.00;99144.69;6171879;28;20682;-77
2023/11/06 06:30:18;;;;;;;1.85;1.20;;;;;;;9.91;100.00;99139.13;6172338;28;20311;-73
2023/11/06 06:33:19;;;;;;;2.70;1.40;;;;;;;9.87;100.00;99156.75;6173331;28;20050;-76
2023/11/06 06:36:20;;;;;;;2.00;1.45;;;;;;;10.00;100.00;99167.13;6204934;28;20490;-76
2023/11/06 06:39:21;;;;;;;4.35;1.52;;;;;;;10.02;100.00;99170.44;6172128;28;20047;-73
2023/11/06 06:42:22;;;;;;;1.75;1.27;;;;;;;9.77;100.00;99162.75;6173480;28;20047;-76
2023/11/06 06:45:23;;;;;;;2.22;1.35;;;;;;;9.95;100.00;99176.22;6173048;28;20058;-76
2023/11/06 06:48:24;;;;;;;4.18;1.42;;;;;;;10.05;100.00;99179.84;6171892;28;20058;-76
2023/11/06 06:51:24;;;;;;;1.20;1.10;;;;;;;10.12;100.00;99183.66;6171754;28;20481;-76
2023/11/06 06:54:25;;;;;;;5.32;1.42;;;;;;;10.17;100.00;99193.72;6172859;28;20054;-73
2023/11/06 06:57:26;;;;;;;2.85;0.90;;;;;;;10.22;100.00;99195.06;6204238;28;20057;-73
2023/11/06 07:00:27;;;;;;;1.42;1.30;;;;;;;10.44;100.00;99206.56;6172854;28;20058;-73
2023/11/06 07:03:29;;;;;;;3.40;1.85;;;;;;;10.69;100.00;99210.78;6172842;28;20054;-73
2023/11/06 07:06:30;;;;;;;1.40;1.08;;;;;;;10.83;100.00;99217.56;6172708;28;20060;-73
2023/11/06 07:09:31;;;;;;;3.60;1.40;;;;;;;10.89;100.00;99215.34;6171672;28;20050;-73
2023/11/06 07:12:32;;;;;;;2.90;1.52;;;;;;;10.89;99.91;99222.31;6172381;28;20062;-73
2023/11/06 07:15:33;;;;;;;4.18;1.50;;;;;;;11.06;99.10;99221.88;6172649;28;20054;-73
2023/11/06 07:18:36;;;;;;;2.38;1.02;;;;;;;10.90;97.92;99226.59;6172579;28;20521;-73
2023/11/06 07:21:38;;;;;;;3.08;1.17;;;;;;;10.98;97.21;99228.63;6171052;28;20434;-76
2023/11/06 07:24:39;;;;;;;3.58;1.13;;;;;;;11.04;96.08;99238.63;6171166;28;20054;-74
2023/11/06 07:27:43;;;;;;;5.38;1.38;;;;;;;11.21;95.73;99240.75;6172188;28;20051;-74
2023/11/06 07:30:44;;;;;;;4.07;1.05;;;;;;;11.44;94.68;99243.38;6172359;28;20102;-76
2023/11/06 07:33:45;;;;;;;3.38;1.17;;;;;;;11.58;93.42;99242.31;6203527;28;20050;-74
2023/11/06 07:36:46;;;;;;;0.80;0.70;;;;;;;11.69;92.88;99248.38;6171113;28;20054;-74
2023/11/06 07:39:47;;;;;;;1.70;0.90;;;;;;;11.76;92.28;99251.34;6170638;28;20054;-74
2023/11/06 07:42:50;;;;;;;0.93;0.80;;;;;;;11.89;91.25;99257.28;6172086;28;20552;-74
2023/11/06 07:45:51;;;;;;;2.25;0.88;;;;;;;11.92;90.91;99264.03;6172042;28;20058;-74
2023/11/06 07:48:53;;;;;;;2.30;0.90;;;;;;;11.93;89.98;99257.88;6170671;28;20100;-76
2023/11/06 07:51:54;;;;;;;8.88;0.90;;;;;;;12.14;88.67;99263.16;6203103;28;20121;-74
2023/11/06 07:54:54;;;;;;;2.72;0.82;;;;;;;12.12;89.17;99269.47;6170463;28;20072;-74
2023/11/06 07:57:55;;;;;;;2.33;1.15;;;;;;;12.03;88.25;99274.47;6171905;28;20050;-74
2023/11/06 08:00:59;;;;;;;3.17;1.00;;;;;;;11.89;87.82;99275.56;6171589;28;20058;-74
2023/11/06 08:04:00;;;;;;;1.23;0.80;;;;;;;11.93;88.84;99280.56;6171571;28;20062;-73
2023/11/06 08:07:01;;;;;;;2.72;1.00;;;;;;;11.82;88.49;99294.44;6170301;28;20051;-76
2023/11/06 08:10:03;;;;;;;0.85;0.60;;;;;;;11.84;88.73;99285.53;6171412;28;20051;-74
2023/11/06 08:13:03;;;;;;;2.60;1.05;;;;;;;12.49;86.80;99291.72;6171314;28;20055;-74
2023/11/06 08:16:05;;;;;;;7.25;1.23;;;;;;;12.64;85.04;99302.75;6171616;28;20062;-73
2023/11/06 08:19:06;;;;;;;2.00;0.90;;;;;;;12.80;85.13;99311.94;6170621;28;20050;-73
2023/11/06 08:22:08;;;;;;;2.35;1.10;;;;;;;12.98;83.81;99323.50;6170227;28;20121;-73
2023/11/06 08:25:11;;;;;;;;;;;;;;;13.01;83.78;99330.28;6170626;28;20054;-76
2023/11/06 08:28:12;;;;;;;1.60;0.85;;;;;;;12.53;84.46;99336.78;6171089;28;19922;-77
2023/11/06 08:31:16;;;;;;;1.63;0.93;;;;;;;12.75;84.69;99341.13;6169827;28;20055;-77
2023/11/06 08:34:17;;;;;;;2.42;1.17;;;;;;;12.76;84.69;99350.63;6169727;28;20494;-77
2023/11/06 08:37:18;;;;;;;3.55;0.80;;;;;;;13.12;83.24;99342.50;6170058;28;20058;-73
2023/11/06 08:40:19;;;;;;;2.63;1.17;;;;;;;13.39;83.13;99349.88;6202294;28;20046;-76
2023/11/06 08:43:21;;;;;;;4.57;0.88;;;;;;;13.37;80.33;99352.63;6169951;28;20055;-76
2023/11/06 08:46:22;;;;;;;2.72;0.80;;;;;;;13.67;80.42;99349.22;6169477;28;20446;-73
2023/11/06 08:49:23;;;;;;;4.35;0.80;;;;;;;14.01;78.51;99369.91;6171859;28;20058;-73
2023/11/06 08:52:24;;;;;;;0.80;0.60;;;;;;;14.09;77.96;99377.94;6207018;28;20137;-73
2023/11/06 08:55:25;;;;;;;1.55;0.80;;;;;;;14.16;77.04;99364.31;6175530;28;20054;-73
2023/11/06 08:58:26;;;;;;;2.83;0.85;;;;;;;14.16;76.68;99362.50;6175854;28;20512;-73
2023/11/06 09:01:27;;;;;;;4.20;1.20;;;;;;;14.11;76.52;99365.53;6175467;28;20050;-76
2023/11/06 09:04:29;;;;;;;1.55;0.55;;;;;;;14.17;76.39;99369.44;6174454;28;20058;-76
2023/11/06 09:07:31;;;;;;;0.60;0.60;;;;;;;14.61;75.61;99379.63;6175459;28;20103;-75
2023/11/06 09:10:32;;;;;;;3.50;0.82;;;;;;;14.74;75.86;99387.25;6175549;28;20314;-76
2023/11/06 09:13:36;;;;;;;3.95;0.90;;;;;;;14.88;75.30;99384.22;6175169;28;20067;-73
2023/11/06 09:16:38;;;;;;;2.90;1.10;;;;;;;14.89;74.88;99386.72;6175539;28;20517;-76
2023/11/06 09:19:39;;;;;;;2.10;1.13;;;;;;;14.91;74.73;99399.72;6206370;28;20086;-76
2023/11/06 09:22:41;;;;;;;0.88;0.68;;;;;;;14.71;75.83;99398.88;6174118;28;20046;-76
2023/11/06 09:25:42;;;;;;;3.50;1.02;;;;;;;14.51;75.03;99413.72;6175107;28;20058;-76
2023/11/06 09:28:46;;;;;;;1.48;0.77;;;;;;;14.50;77.24;99406.81;6173786;28;20062;-76
2023/11/06 09:31:47;;;;;;;2.35;1.20;;;;;;;14.37;77.79;99414.94;6173614;28;20473;-76
2023/11/06 09:34:48;;;;;;;2.22;1.30;;;;;;;14.30;77.39;99416.41;6173586;28;20054;-72
2023/11/06 09:37:49;;;;;;;1.58;1.00;;;;;;;14.01;75.99;99411.88;6174790;28;20413;-72
2023/11/06 09:40:50;;;;;;;2.20;0.82;;;;;;;13.99;76.65;99400.69;6205852;28;20089;-73
2023/11/06 09:43:51;;;;;;;2.13;1.00;;;;;;;14.23;77.02;99410.06;6174759;28;20311;-72
2023/11/06 09:46:56;;;;;;;3.05;2.42;;;;;;;14.39;76.56;99407.75;6174408;28;20067;-73
2023/11/06 09:50:08;;;;;;;7.32;5.60;;;;;;;14.39;77.84;99418.25;6173506;28;20050;-72
2023/11/06 09:53:09;;;;;;;3.77;1.37;;;;;;;14.05;79.21;99422.94;6173371;28;20047;-75
2023/11/06 09:56:10;;;;;;;2.50;0.98;;;;;;;13.99;80.47;99432.16;6173368;28;20109;-76
2023/11/06 09:59:12;;;;;;;3.87;0.90;;;;;;;13.81;81.47;99424.06;6203196;28;20497;-75
2023/11/06 10:02:13;;;;;;;1.95;0.90;;;;;;;13.81;81.79;99429.31;6172056;28;20050;-75
2023/11/06 10:05:20;;;;;;;3.80;0.80;;;;;;;13.73;81.55;99428.28;6173027;28;20055;-75
2023/11/06 10:08:31;;;;;;;3.83;0.70;;;;;;;13.93;79.97;99429.25;6174134;28;20043;-75
2023/11/06 10:11:31;;;;;;;3.13;1.10;;;;;;;14.61;78.21;99424.28;6172811;28;20057;-75
2023/11/06 10:14:39;;;;;;;2.17;1.25;;;;;;;14.99;75.37;99433.16;6172521;28;20047;-73
2023/11/06 10:17:40;;;;;;;3.08;1.35;;;;;;;15.36;74.44;99433.34;6173900;28;20062;-75
2023/11/06 10:20:45;;;;;;;3.83;1.02;;;;;;;15.67;74.27;99435.78;6173816;28;20043;-72
2023/11/06 10:23:48;;;;;;;2.33;0.88;;;;;;;14.97;73.36;99438.59;6174280;28;20082;-75
2023/11/06 10:26:49;;;;;;;3.35;0.80;;;;;;;14.79;74.52;99450.72;6173652;28;20050;-72
2023/11/06 10:30:08;;;;;;;2.40;1.08;;;;;;;14.61;76.14;99451.34;6173589;28;20482;-73
2023/11/06 10:33:14;;;;;;;0.60;0.60;;;;;;;14.34;75.62;99444.06;6173890;28;20093;-75
2023/11/06 10:36:15;;;;;;;5.43;0.70;;;;;;;14.52;75.07;99455.59;6173631;28;20141;-75
2023/11/06 10:39:18;;;;;;;4.05;0.77;;;;;;;15.00;74.80;99458.47;6173339;28;20481;-75
2023/11/06 10:42:21;;;;;;;2.83;0.90;;;;;;;14.55;74.54;99459.72;6173518;28;20062;-72
2023/11/06 10:45:26;;;;;;;2.17;0.65;;;;;;;14.34;77.01;99459.78;6172888;28;20082;-72
2023/11/06 10:48:44;;;;;;;1.85;0.73;;;;;;;14.55;75.72;99467.59;6173420;28;20502;-72
2023/11/06 10:51:47;;;;;;;4.07;0.90;;;;;;;15.21;74.93;99476.75;6173407;28;20047;-75
2023/11/06 10:54:47;;;;;;;;;;;;;;;15.20;73.95;99475.94;6172315;28;20054;-72
2023/11/06 10:57:53;;;;;;;2.38;0.60;;;;;;;14.96;74.06;99480.75;6171813;28;19968;-72
2023/11/06 11:00:56;;;;;;;1.17;0.60;;;;;;;15.20;72.76;99483.81;6171610;28;20113;-72
2023/11/06 11:03:58;;;;;;;2.45;0.40;;;;;;;15.45;70.57;99486.88;6171422;28;20067;-72
2023/11/06 11:07:01;;;;;;;1.13;0.52;;;;;;;16.09;70.09;99491.50;6171462;28;21140;-72
2023/11/06 11:10:04;;;;;;;0.60;0.35;;;;;;;15.68;67.35;99490.03;6171431;28;20058;-72
2023/11/06 11:13:05;;;;;;;0.95;0.40;;;;;;;16.27;68.08;99490.78;6172182;28;20079;-72
2023/11/06 11:16:38;;;;;;;1.38;0.63;;;;;;;15.97;68.43;99487.38;6172681;28;20150;-76
2023/11/06 11:19:41;;;;;;;1.55;0.47;;;;;;;15.75;69.41;99498.22;6171461;28;20046;-72
2023/11/06 11:23:06;;;;;;;1.60;0.55;;;;;;;15.65;70.35;99491.16;6171385;28;20401;-73
2023/11/06 11:26:13;;;;;;;10.23;0.55;;;;;;;15.53;68.34;99497.53;6172435;28;20047;-72
2023/11/06 11:29:15;;;;;;;5.13;1.15;;;;;;;15.70;67.33;99504.69;6172194;28;20058;-73
2023/11/06 11:32:15;;;;;;;2.78;0.50;;;;;;;15.87;67.42;99497.09;6172259;28;20102;-75
2023/11/06 11:35:20;;;;;;;2.10;0.65;;;;;;;16.59;66.55;99506.16;6172088;28;20051;-72
2023/11/06 11:38:21;;;;;;;3.30;0.43;;;;;;;16.78;65.24;99509.66;6171179;28;20051;-72
2023/11/06 11:41:22;;;;;;;4.32;0.70;;;;;;;16.87;66.46;99509.66;6171902;28;20138;-75
2023/11/06 11:44:23;;;;;;;1.55;0.40;;;;;;;16.60;67.83;99513.09;6170845;28;20141;-72
2023/11/06 11:47:25;;;;;;;1.75;0.40;;;;;;;16.71;69.01;99522.59;6170557;28;20053;-75
2023/11/06 11:50:26;;;;;;;4.88;0.68;;;;;;;16.59;67.22;99515.88;6171824;28;20130;-76
2023/11/06 11:53:34;;;;;;;0.85;0.60;;;;;;;16.36;67.47;99513.59;6171844;28;20058;-75
2023/11/06 11:57:04;;;;;;;3.58;0.63;;;;;;;16.65;67.31;99525.81;6171611;28;20086;-75
2023/11/06 12:00:07;;;;;;;3.10;0.90;;;;;;;17.03;65.99;99524.00;6171480;28;20133;-76
2023/11/06 12:03:16;;;;;;;6.05;0.57;;;;;;;16.78;63.73;99518.41;6171675;28;20153;-72
2023/11/06 12:06:17;;;;;;;4.60;0.65;;;;;;;16.92;61.94;99522.38;6171522;28;20097;-75
2023/11/06 12:09:18;;;;;;;0.65;0.47;;;;;;;16.87;59.98;99532.53;6171680;28;20058;-75
2023/11/06 12:12:26;;;;;;;1.10;0.50;;;;;;;16.95;61.32;99535.28;6170325;28;20066;-75
2023/11/06 12:15:33;;;;;;;0.60;0.30;;;;;;;17.22;59.87;99533.59;6170244;28;20523;-73
2023/11/06 12:18:35;;;;;;;3.13;0.68;;;;;;;17.39;58.95;99540.66;6170547;28;20054;-73
2023/11/06 12:21:39;;;;;;;0.90;0.40;;;;;;;17.39;58.51;99538.03;6171254;28;20046;-76
2023/11/06 12:24:50;;;;;;;5.40;0.40;;;;;;;17.77;58.29;99540.50;6170444;28;20433;-73
2023/11/06 12:27:52;;;;;;;0.75;0.35;;;;;;;17.34;58.75;99540.31;6170026;28;20501;-75
2023/11/06 12:30:53;;;;;;;3.90;0.47;;;;;;;16.87;62.61;99551.00;6171345;28;20054;-75
2023/11/06 12:33:54;;;;;;;0.32;0.30;;;;;;;16.69;63.63;99556.97;6171621;28;20054;-73
2023/11/06 12:37:03;;;;;;;0.50;0.50;;;;;;;16.15;63.04;99561.16;6171242;28;20061;-75
2023/11/06 12:40:15;;;;;;;1.23;0.43;;;;;;;16.52;64.17;99560.38;6169767;28;20390;-75
2023/11/06 12:43:18;;;;;;;7.00;0.93;;;;;;;16.07;63.76;99564.50;6169820;28;20406;-72
2023/11/06 12:46:19;;;;;;;6.72;1.02;;;;;;;16.20;64.53;99558.94;6169466;28;20070;-75
2023/11/06 12:49:20;;;;;;;2.22;0.80;;;;;;;15.98;64.45;99570.63;6171533;28;20051;-75
2023/11/06 12:52:22;;;;;;;1.50;0.90;;;;;;;16.04;64.67;99574.47;6171290;28;20038;-75
2023/11/06 12:55:25;;;;;;;4.00;0.43;;;;;;;15.64;65.64;99578.06;6170901;28;20509;-73
2023/11/06 12:58:26;;;;;;;3.53;0.73;;;;;;;15.62;65.86;99575.56;6171281;28;20288;-73
2023/11/06 13:01:32;;;;;;;;;;;;;;;15.61;66.79;99579.16;6170496;28;20050;-76
2023/11/06 13:04:36;;;;;;;4.78;0.73;;;;;;;15.50;67.22;99577.50;6170748;28;20234;-75
2023/11/06 13:07:44;;;;;;;1.42;0.75;;;;;;;15.41;67.46;99582.75;6170674;28;20148;-75
2023/11/06 13:10:44;;;;;;;1.90;0.50;;;;;;;15.56;67.71;99585.81;6170736;28;20054;-75
2023/11/06 13:13:45;;;;;;;4.68;0.63;;;;;;;15.56;67.82;99585.81;6170662;28;20145;-73
2023/11/06 13:16:46;;;;;;;1.10;0.52;;;;;;;15.55;66.97;99584.97;6169583;28;20058;-76
2023/11/06 13:19:49;;;;;;;2.85;0.80;;;;;;;15.39;68.26;99598.66;6170620;28;20074;-75
2023/11/06 13:23:03;;;;;;;1.48;0.52;;;;;;;15.27;67.52;99595.28;6170821;28;20057;-75
2023/11/06 13:26:04;;;;;;;2.08;0.43;;;;;;;15.31;68.56;99601.13;6169248;28;20050;-72
2023/11/06 13:29:07;;;;;;;2.92;0.60;;;;;;;15.33;68.06;99607.06;6185464;28;20054;-72
2023/11/06 13:32:09;;;;;;;5.43;0.60;;;;;;;15.21;67.69;99601.09;6185502;28;20122;-73
2023/11/06 13:35:13;;;;;;;2.30;0.80;;;;;;;15.54;66.70;99603.50;6169451;28;20062;-73
2023/11/06 13:38:14;;;;;;;2.42;0.60;;;;;;;15.45;66.40;99611.25;6174827;28;20093;-72
2023/11/06 13:41:21;;;;;;;2.05;0.57;;;;;;;15.40;66.30;99608.22;6173685;28;20046;-72
2023/11/06 13:44:23;;;;;;;0.95;0.30;;;;;;;15.67;66.99;99614.63;6174686;28;20051;-72
2023/11/06 13:47:24;;;;;;;2.95;0.80;;;;;;;15.48;67.06;99621.50;6174368;28;20180;-72
2023/11/06 13:50:33;;;;;;;6.10;1.08;;;;;;;15.37;67.13;99618.97;6173139;28;20063;-72
2023/11/06 13:53:46;;;;;;;5.32;1.15;;;;;;;15.39;67.60;99618.84;6173396;28;20422;-72
2023/11/06 13:56:52;;;;;;;3.25;1.00;;;;;;;15.24;68.11;99621.03;6173067;28;20081;-73
2023/11/06 13:59:54;;;;;;;3.20;0.60;;;;;;;15.28;67.58;99631.13;6173315;28;20062;-75
2023/11/06 14:02:54;;;;;;;6.28;1.00;;;;;;;15.21;68.22;99635.25;6173112;28;20133;-75
2023/11/06 14:05:55;;;;;;;5.05;0.50;;;;;;;15.19;68.69;99631.94;6173928;28;20097;-75
2023/11/06 14:08:57;;;;;;;3.15;0.57;;;;;;;15.10;69.38;99636.19;6174351;28;20529;-75
2023/11/06 14:11:58;;;;;;;1.67;0.47;;;;;;;15.16;69.73;99641.91;6173845;28;20074;-72
2023/11/06 14:15:02;;;;;;;0.98;0.50;;;;;;;15.14;70.10;99644.66;6173119;28;20051;-72
2023/11/06 14:18:10;;;;;;;2.03;0.50;;;;;;;15.21;69.62;99640.50;6172537;28;20141;-73